sensor_id;sensor_type;location;lat;lon;timestamp;temperature;humidity
59469;DHT22;45277;52.768;18.262;2023-04-03T00:01:26;0.50;99.90
59469;DHT22;45277;52.768;18.262;2023-04-03T00:02:58;0.60;99.90
59469;DHT22;45277;52.768;18.262;2023-04-03T00:04:29;0.60;99.90
59469;DHT22;45277;52.768;18.262;2023-04-03T00:06:01;0.60;99.90
59469;DHT22;45277;52.768;18.262;2023-04-03T00:07:33;0.60;99.90
59469;DHT22;45277;52.768;18.262;2023-04-03T00:09:04;0.50;99.90
59469;DHT22;45277;52.768;18.262;2023-04-03T00:10:36;0.40;99.90
59469;DHT22;45277;52.768;18.262;2023-04-03T00:12:08;0.40;99.90
59469;DHT22;45277;52.768;18.262;2023-04-03T00:13:39;0.40;99.90
59469;DHT22;45277;52.768;18.262;2023-04-03T00:15:11;0.40;99.90
59469;DHT22;45277;52.768;18.262;2023-04-03T00:16:43;0.40;99.90
59469;DHT22;45277;52.768;18.262;2023-04-03T00:18:14;0.40;99.90
59469;DHT22;45277;52.768;18.262;2023-04-03T00:19:45;0.40;99.90
59469;DHT22;45277;52.768;18.262;2023-04-03T00:21:17;0.40;99.90
59469;DHT22;45277;52.768;18.262;2023-04-03T00:22:48;0.50;99.90
59469;DHT22;45277;52.768;18.262;2023-04-03T00:24:20;0.40;99.90
59469;DHT22;45277;52.768;18.262;2023-04-03T00:25:52;0.50;99.90
59469;DHT22;45277;52.768;18.262;2023-04-03T00:27:24;0.40;99.90
59469;DHT22;45277;52.768;18.262;2023-04-03T00:28:55;0.40;99.90
59469;DHT22;45277;52.768;18.262;2023-04-03T00:30:27;0.40;99.90
59469;DHT22;45277;52.768;18.262;2023-04-03T00:31:58;0.40;99.90
59469;DHT22;45277;52.768;18.262;2023-04-03T00:33:30;0.40;99.90
59469;DHT22;45277;52.768;18.262;2023-04-03T00:35:02;0.40;99.90
59469;DHT22;45277;52.768;18.262;2023-04-03T00:36:33;0.40;99.90
59469;DHT22;45277;52.768;18.262;2023-04-03T00:38:04;0.40;99.90
59469;DHT22;45277;52.768;18.262;2023-04-03T00:39:36;0.30;99.90
59469;DHT22;45277;52.768;18.262;2023-04-03T00:41:07;0.40;99.90
59469;DHT22;45277;52.768;18.262;2023-04-03T00:42:40;0.30;99.90
59469;DHT22;45277;52.768;18.262;2023-04-03T00:46:12;0.40;99.90
59469;DHT22;45277;52.768;18.262;2023-04-03T00:47:44;0.30;99.90
59469;DHT22;45277;52.768;18.262;2023-04-03T00:49:16;0.40;99.90
59469;DHT22;45277;52.768;18.262;2023-04-03T00:50:48;0.30;99.90
59469;DHT22;45277;52.768;18.262;2023-04-03T00:52:23;0.40;99.90
59469;DHT22;45277;52.768;18.262;2023-04-03T00:54:01;0.40;99.90
59469;DHT22;45277;52.768;18.262;2023-04-03T00:55:35;0.40;99.90
59469;DHT22;45277;52.768;18.262;2023-04-03T00:57:08;0.40;99.90
59469;DHT22;45277;52.768;18.262;2023-04-03T00:58:49;0.40;99.90
59469;DHT22;45277;52.768;18.262;2023-04-03T01:00:21;0.40;99.90
59469;DHT22;45277;52.768;18.262;2023-04-03T01:01:56;0.30;99.90
59469;DHT22;45277;52.768;18.262;2023-04-03T01:03:27;0.40;99.90
59469;DHT22;45277;52.768;18.262;2023-04-03T01:04:58;0.30;99.90
59469;DHT22;45277;52.768;18.262;2023-04-03T01:06:35;0.30;99.90
59469;DHT22;45277;52.768;18.262;2023-04-03T01:08:07;0.30;99.90
59469;DHT22;45277;52.768;18.262;2023-04-03T01:09:39;0.30;99.90
59469;DHT22;45277;52.768;18.262;2023-04-03T01:11:11;0.30;99.90
59469;DHT22;45277;52.768;18.262;2023-04-03T01:12:45;0.30;99.90
59469;DHT22;45277;52.768;18.262;2023-04-03T01:14:16;0.30;99.90
59469;DHT22;45277;52.768;18.262;2023-04-03T01:15:48;0.30;99.90
59469;DHT22;45277;52.768;18.262;2023-04-03T01:19:10;0.30;99.90
59469;DHT22;45277;52.768;18.262;2023-04-03T01:26:03;0.30;99.90
59469;DHT22;45277;52.768;18.262;2023-04-03T01:27:35;0.20;99.90
59469;DHT22;45277;52.768;18.262;2023-04-03T01:29:06;0.20;99.90
59469;DHT22;45277;52.768;18.262;2023-04-03T01:30:48;0.20;99.90
59469;DHT22;45277;52.768;18.262;2023-04-03T01:32:21;0.20;99.90
59469;DHT22;45277;52.768;18.262;2023-04-03T01:33:53;0.20;99.90
59469;DHT22;45277;52.768;18.262;2023-04-03T01:35:25;0.20;99.90
59469;DHT22;45277;52.768;18.262;2023-04-03T01:36:57;0.10;99.90
59469;DHT22;45277;52.768;18.262;2023-04-03T01:38:28;0.10;99.90
59469;DHT22;45277;52.768;18.262;2023-04-03T01:40:00;0.10;99.90
59469;DHT22;45277;52.768;18.262;2023-04-03T01:41:31;0.10;99.90
59469;DHT22;45277;52.768;18.262;2023-04-03T01:43:03;0.10;99.90
59469;DHT22;45277;52.768;18.262;2023-04-03T01:44:35;0.10;99.90
59469;DHT22;45277;52.768;18.262;2023-04-03T01:46:06;0.10;99.90
59469;DHT22;45277;52.768;18.262;2023-04-03T01:47:38;0.10;99.90
59469;DHT22;45277;52.768;18.262;2023-04-03T01:49:10;0.10;99.90
59469;DHT22;45277;52.768;18.262;2023-04-03T01:50:41;0.10;99.90
59469;DHT22;45277;52.768;18.262;2023-04-03T01:52:13;0.10;99.90
59469;DHT22;45277;52.768;18.262;2023-04-03T01:53:44;0.10;99.90
59469;DHT22;45277;52.768;18.262;2023-04-03T01:55:16;0.10;99.90
59469;DHT22;45277;52.768;18.262;2023-04-03T01:56:47;0.10;99.90
59469;DHT22;45277;52.768;18.262;2023-04-03T01:58:18;0.10;99.90
59469;DHT22;45277;52.768;18.262;2023-04-03T01:59:50;0.10;99.90
59469;DHT22;45277;52.768;18.262;2023-04-03T02:01:22;0.00;99.90
59469;DHT22;45277;52.768;18.262;2023-04-03T02:02:54;0.10;99.90
59469;DHT22;45277;52.768;18.262;2023-04-03T02:04:26;0.00;99.90
59469;DHT22;45277;52.768;18.262;2023-04-03T02:05:57;0.10;99.90
59469;DHT22;45277;52.768;18.262;2023-04-03T02:07:29;0.10;99.90
59469;DHT22;45277;52.768;18.262;2023-04-03T02:09:00;0.00;99.90
59469;DHT22;45277;52.768;18.262;2023-04-03T02:10:31;0.00;99.90
59469;DHT22;45277;52.768;18.262;2023-04-03T02:12:03;0.00;99.90
59469;DHT22;45277;52.768;18.262;2023-04-03T02:13:34;-0.10;99.90
59469;DHT22;45277;52.768;18.262;2023-04-03T02:15:07;-0.10;99.90
59469;DHT22;45277;52.768;18.262;2023-04-03T02:16:38;-0.20;99.90
59469;DHT22;45277;52.768;18.262;2023-04-03T02:18:10;-0.20;99.90
59469;DHT22;45277;52.768;18.262;2023-04-03T02:19:42;-0.20;99.90
59469;DHT22;45277;52.768;18.262;2023-04-03T02:21:13;-0.20;99.90
59469;DHT22;45277;52.768;18.262;2023-04-03T02:22:45;-0.30;99.90
59469;DHT22;45277;52.768;18.262;2023-04-03T02:24:16;-0.30;99.90
59469;DHT22;45277;52.768;18.262;2023-04-03T02:25:48;-0.30;99.90
59469;DHT22;45277;52.768;18.262;2023-04-03T02:27:20;-0.20;99.90
59469;DHT22;45277;52.768;18.262;2023-04-03T02:28:51;-0.30;99.90
59469;DHT22;45277;52.768;18.262;2023-04-03T02:30:23;-0.30;99.90
59469;DHT22;45277;52.768;18.262;2023-04-03T02:31:54;-0.30;99.90
59469;DHT22;45277;52.768;18.262;2023-04-03T02:33:26;-0.30;99.90
59469;DHT22;45277;52.768;18.262;2023-04-03T02:34:58;-0.30;99.90
59469;DHT22;45277;52.768;18.262;2023-04-03T02:36:29;-0.30;99.90
59469;DHT22;45277;52.768;18.262;2023-04-03T02:38:00;-0.30;99.90
59469;DHT22;45277;52.768;18.262;2023-04-03T02:39:32;-0.30;99.90
59469;DHT22;45277;52.768;18.262;2023-04-03T02:41:05;-0.30;99.90
59469;DHT22;45277;52.768;18.262;2023-04-03T02:42:37;-0.30;99.90
59469;DHT22;45277;52.768;18.262;2023-04-03T02:44:12;-0.30;99.90
59469;DHT22;45277;52.768;18.262;2023-04-03T02:45:44;-0.30;99.90
59469;DHT22;45277;52.768;18.262;2023-04-03T02:47:15;-0.40;99.90
59469;DHT22;45277;52.768;18.262;2023-04-03T02:48:47;-0.40;99.90
59469;DHT22;45277;52.768;18.262;2023-04-03T02:50:18;-0.40;99.90
59469;DHT22;45277;52.768;18.262;2023-04-03T02:51:50;-0.40;99.90
59469;DHT22;45277;52.768;18.262;2023-04-03T02:53:23;-0.50;99.90
59469;DHT22;45277;52.768;18.262;2023-04-03T02:54:54;-0.40;99.90
59469;DHT22;45277;52.768;18.262;2023-04-03T02:56:26;-0.50;99.90
59469;DHT22;45277;52.768;18.262;2023-04-03T02:57:58;-0.40;99.90
59469;DHT22;45277;52.768;18.262;2023-04-03T02:59:29;-0.40;99.90
59469;DHT22;45277;52.768;18.262;2023-04-03T03:01:01;-0.40;99.90
59469;DHT22;45277;52.768;18.262;2023-04-03T03:02:32;-0.40;99.90
59469;DHT22;45277;52.768;18.262;2023-04-03T03:04:04;-0.40;99.90
59469;DHT22;45277;52.768;18.262;2023-04-03T03:05:35;-0.40;99.90
59469;DHT22;45277;52.768;18.262;2023-04-03T03:07:07;-0.50;99.90
59469;DHT22;45277;52.768;18.262;2023-04-03T03:08:38;-0.50;99.90
59469;DHT22;45277;52.768;18.262;2023-04-03T03:10:10;-0.50;99.90
59469;DHT22;45277;52.768;18.262;2023-04-03T03:11:42;-0.50;99.90
59469;DHT22;45277;52.768;18.262;2023-04-03T03:13:13;-0.50;99.90
59469;DHT22;45277;52.768;18.262;2023-04-03T03:14:44;-0.40;99.90
59469;DHT22;45277;52.768;18.262;2023-04-03T03:16:16;-0.50;99.90
59469;DHT22;45277;52.768;18.262;2023-04-03T03:17:47;-0.50;99.90
59469;DHT22;45277;52.768;18.262;2023-04-03T03:19:19;-0.50;99.90
59469;DHT22;45277;52.768;18.262;2023-04-03T03:20:54;-0.50;99.90
59469;DHT22;45277;52.768;18.262;2023-04-03T03:22:26;-0.50;99.90
59469;DHT22;45277;52.768;18.262;2023-04-03T03:23:57;-0.50;99.90
59469;DHT22;45277;52.768;18.262;2023-04-03T03:25:29;-0.50;99.90
59469;DHT22;45277;52.768;18.262;2023-04-03T03:27:00;-0.50;99.90
59469;DHT22;45277;52.768;18.262;2023-04-03T03:28:32;-0.60;99.90
59469;DHT22;45277;52.768;18.262;2023-04-03T03:30:04;-0.60;99.90
59469;DHT22;45277;52.768;18.262;2023-04-03T03:31:36;-0.60;99.90
59469;DHT22;45277;52.768;18.262;2023-04-03T03:33:07;-0.60;99.90
59469;DHT22;45277;52.768;18.262;2023-04-03T03:34:39;-0.60;99.90
59469;DHT22;45277;52.768;18.262;2023-04-03T03:36:11;-0.60;99.90
59469;DHT22;45277;52.768;18.262;2023-04-03T03:37:42;-0.70;99.90
59469;DHT22;45277;52.768;18.262;2023-04-03T03:39:14;-0.70;99.90
59469;DHT22;45277;52.768;18.262;2023-04-03T03:40:47;-0.70;99.90
59469;DHT22;45277;52.768;18.262;2023-04-03T03:42:19;-0.70;99.90
59469;DHT22;45277;52.768;18.262;2023-04-03T03:43:51;-0.70;99.90
59469;DHT22;45277;52.768;18.262;2023-04-03T03:45:23;-0.70;99.90
59469;DHT22;45277;52.768;18.262;2023-04-03T03:46:54;-0.70;99.90
59469;DHT22;45277;52.768;18.262;2023-04-03T03:48:26;-0.60;99.90
59469;DHT22;45277;52.768;18.262;2023-04-03T03:49:58;-0.70;99.90
59469;DHT22;45277;52.768;18.262;2023-04-03T03:51:29;-0.70;99.90
59469;DHT22;45277;52.768;18.262;2023-04-03T03:53:01;-0.70;99.90
59469;DHT22;45277;52.768;18.262;2023-04-03T03:54:32;-0.70;99.90
59469;DHT22;45277;52.768;18.262;2023-04-03T03:56:04;-0.70;99.90
59469;DHT22;45277;52.768;18.262;2023-04-03T03:57:36;-0.70;99.90
59469;DHT22;45277;52.768;18.262;2023-04-03T03:59:08;-0.80;99.90
59469;DHT22;45277;52.768;18.262;2023-04-03T04:00:39;-0.80;99.90
59469;DHT22;45277;52.768;18.262;2023-04-03T04:02:11;-0.80;99.90
59469;DHT22;45277;52.768;18.262;2023-04-03T04:03:43;-0.70;99.90
59469;DHT22;45277;52.768;18.262;2023-04-03T04:05:14;-0.80;99.90
59469;DHT22;45277;52.768;18.262;2023-04-03T04:06:46;-0.80;99.90
59469;DHT22;45277;52.768;18.262;2023-04-03T04:08:17;-0.70;99.90
59469;DHT22;45277;52.768;18.262;2023-04-03T04:09:49;-0.70;99.90
59469;DHT22;45277;52.768;18.262;2023-04-03T04:11:20;-0.60;99.90
59469;DHT22;45277;52.768;18.262;2023-04-03T04:12:52;-0.60;99.90
59469;DHT22;45277;52.768;18.262;2023-04-03T04:14:24;-0.70;99.90
59469;DHT22;45277;52.768;18.262;2023-04-03T04:15:56;-0.70;99.90
59469;DHT22;45277;52.768;18.262;2023-04-03T04:17:27;-0.80;99.90
59469;DHT22;45277;52.768;18.262;2023-04-03T04:18:58;-0.80;99.90
59469;DHT22;45277;52.768;18.262;2023-04-03T04:20:30;-0.70;99.90
59469;DHT22;45277;52.768;18.262;2023-04-03T04:22:01;-0.80;99.90
59469;DHT22;45277;52.768;18.262;2023-04-03T04:23:33;-0.80;99.90
59469;DHT22;45277;52.768;18.262;2023-04-03T04:25:04;-0.80;99.90
59469;DHT22;45277;52.768;18.262;2023-04-03T04:26:36;-0.70;99.90
59469;DHT22;45277;52.768;18.262;2023-04-03T04:28:07;-0.70;99.90
59469;DHT22;45277;52.768;18.262;2023-04-03T04:29:39;-0.70;99.90
59469;DHT22;45277;52.768;18.262;2023-04-03T04:31:10;-0.60;99.90
59469;DHT22;45277;52.768;18.262;2023-04-03T04:32:41;-0.60;99.90
59469;DHT22;45277;52.768;18.262;2023-04-03T04:34:13;-0.60;99.90
59469;DHT22;45277;52.768;18.262;2023-04-03T04:35:46;-0.60;99.90
59469;DHT22;45277;52.768;18.262;2023-04-03T04:37:18;-0.60;99.90
59469;DHT22;45277;52.768;18.262;2023-04-03T04:38:49;-0.60;99.90
59469;DHT22;45277;52.768;18.262;2023-04-03T04:40:24;-0.60;99.90
59469;DHT22;45277;52.768;18.262;2023-04-03T04:41:55;-0.50;99.90
59469;DHT22;45277;52.768;18.262;2023-04-03T04:43:27;-0.50;99.90
59469;DHT22;45277;52.768;18.262;2023-04-03T04:44:58;-0.40;99.90
59469;DHT22;45277;52.768;18.262;2023-04-03T04:46:30;-0.40;99.90
59469;DHT22;45277;52.768;18.262;2023-04-03T04:48:01;-0.40;99.90
59469;DHT22;45277;52.768;18.262;2023-04-03T04:49:33;-0.30;99.90
59469;DHT22;45277;52.768;18.262;2023-04-03T04:51:04;-0.30;99.90
59469;DHT22;45277;52.768;18.262;2023-04-03T04:52:36;-0.30;99.90
59469;DHT22;45277;52.768;18.262;2023-04-03T04:54:08;-0.30;99.90
59469;DHT22;45277;52.768;18.262;2023-04-03T04:55:39;-0.20;99.90
59469;DHT22;45277;52.768;18.262;2023-04-03T04:57:11;-0.10;99.90
59469;DHT22;45277;52.768;18.262;2023-04-03T04:58:42;-0.10;99.90
59469;DHT22;45277;52.768;18.262;2023-04-03T05:00:14;-0.10;99.90
59469;DHT22;45277;52.768;18.262;2023-04-03T05:01:46;0.00;99.90
59469;DHT22;45277;52.768;18.262;2023-04-03T05:03:17;0.00;99.90
59469;DHT22;45277;52.768;18.262;2023-04-03T05:04:49;0.00;99.90
59469;DHT22;45277;52.768;18.262;2023-04-03T05:06:22;0.00;99.90
59469;DHT22;45277;52.768;18.262;2023-04-03T05:07:53;0.10;99.90
59469;DHT22;45277;52.768;18.262;2023-04-03T05:09:25;0.10;99.90
59469;DHT22;45277;52.768;18.262;2023-04-03T05:10:57;0.10;99.90
59469;DHT22;45277;52.768;18.262;2023-04-03T05:12:29;0.20;99.90
59469;DHT22;45277;52.768;18.262;2023-04-03T05:14:00;0.20;99.90
59469;DHT22;45277;52.768;18.262;2023-04-03T05:15:32;0.30;99.90
59469;DHT22;45277;52.768;18.262;2023-04-03T05:17:03;0.30;99.90
59469;DHT22;45277;52.768;18.262;2023-04-03T05:18:35;0.30;99.90
59469;DHT22;45277;52.768;18.262;2023-04-03T05:20:07;0.30;99.90
59469;DHT22;45277;52.768;18.262;2023-04-03T05:21:39;0.40;99.90
59469;DHT22;45277;52.768;18.262;2023-04-03T05:23:11;0.40;99.90
59469;DHT22;45277;52.768;18.262;2023-04-03T05:24:43;0.40;99.90
59469;DHT22;45277;52.768;18.262;2023-04-03T05:26:14;0.40;99.90
59469;DHT22;45277;52.768;18.262;2023-04-03T05:27:45;0.40;99.90
59469;DHT22;45277;52.768;18.262;2023-04-03T05:29:17;0.50;99.90
59469;DHT22;45277;52.768;18.262;2023-04-03T05:30:58;0.50;99.90
59469;DHT22;45277;52.768;18.262;2023-04-03T05:32:30;0.50;99.90
59469;DHT22;45277;52.768;18.262;2023-04-03T05:34:02;0.60;99.90
59469;DHT22;45277;52.768;18.262;2023-04-03T05:35:36;0.60;99.90
59469;DHT22;45277;52.768;18.262;2023-04-03T05:37:10;0.60;99.90
59469;DHT22;45277;52.768;18.262;2023-04-03T05:38:42;0.60;99.90
59469;DHT22;45277;52.768;18.262;2023-04-03T05:40:13;0.70;99.90
59469;DHT22;45277;52.768;18.262;2023-04-03T05:41:44;0.60;99.90
59469;DHT22;45277;52.768;18.262;2023-04-03T05:43:16;0.70;99.90
59469;DHT22;45277;52.768;18.262;2023-04-03T05:44:48;0.70;99.90
59469;DHT22;45277;52.768;18.262;2023-04-03T05:46:21;0.70;99.90
59469;DHT22;45277;52.768;18.262;2023-04-03T05:47:53;0.80;99.90
59469;DHT22;45277;52.768;18.262;2023-04-03T05:49:24;0.80;99.90
59469;DHT22;45277;52.768;18.262;2023-04-03T05:50:56;0.80;99.90
59469;DHT22;45277;52.768;18.262;2023-04-03T05:52:30;0.80;99.90
59469;DHT22;45277;52.768;18.262;2023-04-03T05:54:12;0.80;99.90
59469;DHT22;45277;52.768;18.262;2023-04-03T05:55:44;0.90;99.90
59469;DHT22;45277;52.768;18.262;2023-04-03T05:57:16;1.00;99.90
59469;DHT22;45277;52.768;18.262;2023-04-03T05:58:48;1.00;99.90
59469;DHT22;45277;52.768;18.262;2023-04-03T06:00:20;1.10;99.90
59469;DHT22;45277;52.768;18.262;2023-04-03T06:01:52;1.10;99.90
59469;DHT22;45277;52.768;18.262;2023-04-03T06:03:24;1.10;99.90
59469;DHT22;45277;52.768;18.262;2023-04-03T06:04:55;1.10;99.90
59469;DHT22;45277;52.768;18.262;2023-04-03T06:06:50;1.10;99.90
59469;DHT22;45277;52.768;18.262;2023-04-03T06:08:22;1.10;99.90
59469;DHT22;45277;52.768;18.262;2023-04-03T06:09:56;1.20;99.90
59469;DHT22;45277;52.768;18.262;2023-04-03T06:11:28;1.20;99.90
59469;DHT22;45277;52.768;18.262;2023-04-03T06:12:59;1.30;99.90
59469;DHT22;45277;52.768;18.262;2023-04-03T06:14:30;1.20;99.90
59469;DHT22;45277;52.768;18.262;2023-04-03T06:16:02;1.20;99.90
59469;DHT22;45277;52.768;18.262;2023-04-03T06:17:35;1.20;99.90
59469;DHT22;45277;52.768;18.262;2023-04-03T06:19:11;1.20;99.90
59469;DHT22;45277;52.768;18.262;2023-04-03T06:20:42;1.20;99.90
59469;DHT22;45277;52.768;18.262;2023-04-03T06:22:14;1.30;99.90
59469;DHT22;45277;52.768;18.262;2023-04-03T06:23:46;1.30;99.90
59469;DHT22;45277;52.768;18.262;2023-04-03T06:25:18;1.30;99.90
59469;DHT22;45277;52.768;18.262;2023-04-03T06:26:50;1.30;99.90
59469;DHT22;45277;52.768;18.262;2023-04-03T06:28:22;1.30;99.90
59469;DHT22;45277;52.768;18.262;2023-04-03T06:29:54;1.40;99.90
59469;DHT22;45277;52.768;18.262;2023-04-03T06:31:25;1.50;99.90
59469;DHT22;45277;52.768;18.262;2023-04-03T06:32:57;1.40;99.90
59469;DHT22;45277;52.768;18.262;2023-04-03T06:34:30;1.50;99.90
59469;DHT22;45277;52.768;18.262;2023-04-03T06:36:04;1.40;99.90
59469;DHT22;45277;52.768;18.262;2023-04-03T06:37:36;1.50;99.90
59469;DHT22;45277;52.768;18.262;2023-04-03T06:39:11;1.60;99.90
59469;DHT22;45277;52.768;18.262;2023-04-03T06:40:44;1.60;99.90
59469;DHT22;45277;52.768;18.262;2023-04-03T06:42:17;1.60;96.90
59469;DHT22;45277;52.768;18.262;2023-04-03T06:43:49;1.60;99.90
59469;DHT22;45277;52.768;18.262;2023-04-03T06:45:20;1.70;97.50
59469;DHT22;45277;52.768;18.262;2023-04-03T06:46:52;1.80;99.10
59469;DHT22;45277;52.768;18.262;2023-04-03T06:48:25;1.70;93.40
59469;DHT22;45277;52.768;18.262;2023-04-03T06:49:57;1.70;91.80
59469;DHT22;45277;52.768;18.262;2023-04-03T06:51:30;1.80;94.30
59469;DHT22;45277;52.768;18.262;2023-04-03T06:53:02;1.80;92.90
59469;DHT22;45277;52.768;18.262;2023-04-03T06:54:34;1.80;96.40
59469;DHT22;45277;52.768;18.262;2023-04-03T06:56:08;1.90;77.50
59469;DHT22;45277;52.768;18.262;2023-04-03T06:57:39;2.00;57.70
59469;DHT22;45277;52.768;18.262;2023-04-03T06:59:12;2.10;65.50
59469;DHT22;45277;52.768;18.262;2023-04-03T07:00:46;2.00;76.60
59469;DHT22;45277;52.768;18.262;2023-04-03T07:02:18;2.10;50.70
59469;DHT22;45277;52.768;18.262;2023-04-03T07:03:50;2.10;67.10
59469;DHT22;45277;52.768;18.262;2023-04-03T07:05:21;2.00;71.40
59469;DHT22;45277;52.768;18.262;2023-04-03T07:06:53;2.00;74.50
59469;DHT22;45277;52.768;18.262;2023-04-03T07:08:24;2.10;74.10
59469;DHT22;45277;52.768;18.262;2023-04-03T07:09:57;2.10;61.50
59469;DHT22;45277;52.768;18.262;2023-04-03T07:11:28;2.20;57.40
59469;DHT22;45277;52.768;18.262;2023-04-03T07:13:00;2.20;66.60
59469;DHT22;45277;52.768;18.262;2023-04-03T07:14:32;2.10;65.50
59469;DHT22;45277;52.768;18.262;2023-04-03T07:16:05;2.10;74.00
59469;DHT22;45277;52.768;18.262;2023-04-03T07:17:37;2.30;54.30
59469;DHT22;45277;52.768;18.262;2023-04-03T07:19:08;2.30;73.50
59469;DHT22;45277;52.768;18.262;2023-04-03T07:20:41;2.30;72.40
59469;DHT22;45277;52.768;18.262;2023-04-03T07:22:12;2.40;76.70
59469;DHT22;45277;52.768;18.262;2023-04-03T07:23:43;2.40;64.90
59469;DHT22;45277;52.768;18.262;2023-04-03T07:25:16;2.50;66.10
59469;DHT22;45277;52.768;18.262;2023-04-03T07:26:51;2.60;69.00
59469;DHT22;45277;52.768;18.262;2023-04-03T07:28:24;2.60;79.30
59469;DHT22;45277;52.768;18.262;2023-04-03T07:29:55;2.80;80.90
59469;DHT22;45277;52.768;18.262;2023-04-03T07:31:27;2.90;66.10
59469;DHT22;45277;52.768;18.262;2023-04-03T07:32:58;2.90;50.80
59469;DHT22;45277;52.768;18.262;2023-04-03T07:34:31;2.60;59.60
59469;DHT22;45277;52.768;18.262;2023-04-03T07:36:03;2.50;70.30
59469;DHT22;45277;52.768;18.262;2023-04-03T07:37:35;2.60;67.30
59469;DHT22;45277;52.768;18.262;2023-04-03T07:39:07;2.50;66.10
59469;DHT22;45277;52.768;18.262;2023-04-03T07:40:39;2.60;56.40
59469;DHT22;45277;52.768;18.262;2023-04-03T07:42:11;2.60;61.60
59469;DHT22;45277;52.768;18.262;2023-04-03T07:43:44;2.60;52.30
59469;DHT22;45277;52.768;18.262;2023-04-03T07:45:16;2.80;54.20
59469;DHT22;45277;52.768;18.262;2023-04-03T07:46:48;2.90;78.60
59469;DHT22;45277;52.768;18.262;2023-04-03T07:48:21;3.00;83.60
59469;DHT22;45277;52.768;18.262;2023-04-03T07:49:53;3.10;51.10
59469;DHT22;45277;52.768;18.262;2023-04-03T07:51:24;3.30;33.40
59469;DHT22;45277;52.768;18.262;2023-04-03T07:52:57;3.30;34.80
59469;DHT22;45277;52.768;18.262;2023-04-03T07:54:29;3.20;44.70
59469;DHT22;45277;52.768;18.262;2023-04-03T07:56:01;3.20;21.00
59469;DHT22;45277;52.768;18.262;2023-04-03T07:57:34;3.20;22.70
59469;DHT22;45277;52.768;18.262;2023-04-03T07:59:06;3.20;21.00
59469;DHT22;45277;52.768;18.262;2023-04-03T08:00:38;3.10;23.90
59469;DHT22;45277;52.768;18.262;2023-04-03T08:02:11;3.10;21.20
59469;DHT22;45277;52.768;18.262;2023-04-03T08:03:42;3.10;18.70
59469;DHT22;45277;52.768;18.262;2023-04-03T08:05:14;3.00;16.60
59469;DHT22;45277;52.768;18.262;2023-04-03T08:06:46;3.00;11.60
59469;DHT22;45277;52.768;18.262;2023-04-03T08:08:20;3.00;20.50
59469;DHT22;45277;52.768;18.262;2023-04-03T08:09:55;3.10;14.60
59469;DHT22;45277;52.768;18.262;2023-04-03T08:11:27;3.10;8.20
59469;DHT22;45277;52.768;18.262;2023-04-03T08:12:59;3.10;21.30
59469;DHT22;45277;52.768;18.262;2023-04-03T08:14:32;3.10;18.50
59469;DHT22;45277;52.768;18.262;2023-04-03T08:16:15;3.10;33.20
59469;DHT22;45277;52.768;18.262;2023-04-03T08:17:47;3.20;28.20
59469;DHT22;45277;52.768;18.262;2023-04-03T08:19:19;3.30;17.40
59469;DHT22;45277;52.768;18.262;2023-04-03T08:20:51;3.40;5.30
59469;DHT22;45277;52.768;18.262;2023-04-03T08:22:23;3.30;8.60
59469;DHT22;45277;52.768;18.262;2023-04-03T08:23:54;3.20;11.50
59469;DHT22;45277;52.768;18.262;2023-04-03T08:25:26;3.30;5.10
59469;DHT22;45277;52.768;18.262;2023-04-03T08:26:57;3.30;4.20
59469;DHT22;45277;52.768;18.262;2023-04-03T08:28:28;3.30;21.60
59469;DHT22;45277;52.768;18.262;2023-04-03T08:30:00;3.30;13.10
59469;DHT22;45277;52.768;18.262;2023-04-03T08:31:32;3.30;9.30
59469;DHT22;45277;52.768;18.262;2023-04-03T08:33:04;3.30;20.10
59469;DHT22;45277;52.768;18.262;2023-04-03T08:34:35;3.30;8.40
59469;DHT22;45277;52.768;18.262;2023-04-03T08:36:18;3.30;7.30
59469;DHT22;45277;52.768;18.262;2023-04-03T08:37:49;3.40;6.90
59469;DHT22;45277;52.768;18.262;2023-04-03T08:39:21;3.40;17.70
59469;DHT22;45277;52.768;18.262;2023-04-03T08:44:52;3.50;4.60
59469;DHT22;45277;52.768;18.262;2023-04-03T08:48:41;3.80;46.10
59469;DHT22;45277;52.768;18.262;2023-04-03T08:50:17;3.80;13.40
59469;DHT22;45277;52.768;18.262;2023-04-03T08:51:50;3.90;10.50
59469;DHT22;45277;52.768;18.262;2023-04-03T08:53:26;3.90;11.40
59469;DHT22;45277;52.768;18.262;2023-04-03T08:55:03;4.00;9.80
59469;DHT22;45277;52.768;18.262;2023-04-03T08:56:36;4.10;1.40
59469;DHT22;45277;52.768;18.262;2023-04-03T08:58:19;4.00;3.50
59469;DHT22;45277;52.768;18.262;2023-04-03T08:59:51;4.00;1.10
59469;DHT22;45277;52.768;18.262;2023-04-03T09:01:39;4.10;1.00
59469;DHT22;45277;52.768;18.262;2023-04-03T09:03:17;4.10;5.70
59469;DHT22;45277;52.768;18.262;2023-04-03T09:04:49;3.90;1.00
59469;DHT22;45277;52.768;18.262;2023-04-03T09:06:21;3.80;1.00
59469;DHT22;45277;52.768;18.262;2023-04-03T09:09:59;3.70;1.00
59469;DHT22;45277;52.768;18.262;2023-04-03T09:12:00;3.70;1.00
59469;DHT22;45277;52.768;18.262;2023-04-03T09:13:49;3.80;1.00
59469;DHT22;45277;52.768;18.262;2023-04-03T09:15:24;3.90;2.30
59469;DHT22;45277;52.768;18.262;2023-04-03T09:16:59;4.00;1.00
59469;DHT22;45277;52.768;18.262;2023-04-03T09:18:35;4.00;1.00
59469;DHT22;45277;52.768;18.262;2023-04-03T09:23:55;4.00;1.00
59469;DHT22;45277;52.768;18.262;2023-04-03T09:25:33;4.20;25.70
59469;DHT22;45277;52.768;18.262;2023-04-03T09:27:10;4.40;2.60
59469;DHT22;45277;52.768;18.262;2023-04-03T09:28:41;4.50;2.00
59469;DHT22;45277;52.768;18.262;2023-04-03T09:30:16;4.60;2.30
59469;DHT22;45277;52.768;18.262;2023-04-03T09:32:30;4.60;2.70
59469;DHT22;45277;52.768;18.262;2023-04-03T09:34:08;4.80;1.00
59469;DHT22;45277;52.768;18.262;2023-04-03T09:35:41;4.80;1.00
59469;DHT22;45277;52.768;18.262;2023-04-03T09:37:33;4.80;1.00
59469;DHT22;45277;52.768;18.262;2023-04-03T09:39:19;4.90;1.60
59469;DHT22;45277;52.768;18.262;2023-04-03T09:41:16;5.00;1.00
59469;DHT22;45277;52.768;18.262;2023-04-03T09:42:48;5.00;1.00
59469;DHT22;45277;52.768;18.262;2023-04-03T09:44:29;5.10;1.00
59469;DHT22;45277;52.768;18.262;2023-04-03T09:46:31;5.10;1.00
59469;DHT22;45277;52.768;18.262;2023-04-03T09:49:44;5.20;1.00
59469;DHT22;45277;52.768;18.262;2023-04-03T09:51:16;5.20;1.00
59469;DHT22;45277;52.768;18.262;2023-04-03T09:52:50;5.10;1.00
59469;DHT22;45277;52.768;18.262;2023-04-03T09:54:34;5.00;1.00
59469;DHT22;45277;52.768;18.262;2023-04-03T09:57:48;5.20;1.00
59469;DHT22;45277;52.768;18.262;2023-04-03T09:59:21;5.40;1.00
59469;DHT22;45277;52.768;18.262;2023-04-03T10:00:57;5.60;1.00
59469;DHT22;45277;52.768;18.262;2023-04-03T10:02:40;5.80;1.00
59469;DHT22;45277;52.768;18.262;2023-04-03T10:04:15;5.80;1.00
59469;DHT22;45277;52.768;18.262;2023-04-03T10:05:47;5.40;1.00
59469;DHT22;45277;52.768;18.262;2023-04-03T10:07:33;5.20;1.00
59469;DHT22;45277;52.768;18.262;2023-04-03T10:11:11;5.40;1.00
59469;DHT22;45277;52.768;18.262;2023-04-03T10:12:43;5.30;1.00